Thursday, May 24, 2018, 5:54 AM EDT
Back to Local

KASH, Nashua, Boire Field Airport

Location: Nashua, NH, United States Lat: 42.782
Local Time: 5:54 AM EDT ( 9:54 GMT) Lon: -71.515
Time Zone: US/Eastern Elev: 200 ft

Show me the last for .
Show Decoded

2018-05-24 04:56 METAR KASH 240856Z AUTO 00000KT 10SM CLR 11/11 A3004 RMK AO2 SLP181 T01060106
                 53007 =
2018-05-24 03:56 METAR KASH 240756Z AUTO 00000KT 10SM FEW014 12/11 A3003 RMK AO2 SLP179 T01170111
                 =
2018-05-24 02:56 METAR KASH 240656Z AUTO 00000KT 10SM CLR 12/12 A3002 RMK AO2 SLP175 T01220117 =
2018-05-24 01:56 METAR KASH 240556Z AUTO 00000KT 10SM CLR 14/12 A3002 RMK AO2 SLP173 T01440122
                 10250 20144 51015 =
2018-05-24 00:56 METAR KASH 240456Z AUTO 11004KT 10SM CLR 16/12 A3001 RMK AO2 SLP171 T01610122 =
2018-05-23 23:56 METAR KASH 240356Z AUTO 10004KT 7SM FEW080 18/12 A3000 RMK AO2 SLP166 T01780122
                 402890117 =
2018-05-23 22:56 METAR KASH 240256Z AUTO 00000KT 10SM SCT075 SCT095 18/12 A2997 RMK AO2 SLP158
                 T01780117 51029 =
2018-05-23 21:56 METAR KASH 240156Z AUTO 00000KT 10SM CLR 19/11 A2996 RMK AO2 SLP155 T01940106 =
2018-05-23 20:56 METAR KASH 240056Z 35004KT 10SM CLR 23/10 A2993 RMK AO2 LTG DSNT SE AND S SLP144
                 T02280100 =
2018-05-23 19:56 METAR KASH 232356Z 33006KT 10SM SCT080 BKN095 BKN110 24/11 A2989 RMK AO2 LTG
                 DSNT SW SLP129 T02440111 10289 20244 53020 =
2018-05-23 18:56 METAR KASH 232256Z 30009KT 10SM SCT120 27/09 A2986 RMK AO2 SLP119 T02670094 =
2018-05-23 17:56 METAR KASH 232156Z 27007KT 10SM FEW095 BKN120 28/09 A2983 RMK AO2 SLP111
                 T02780094 =
2018-05-23 16:56 METAR KASH 232056Z 30015G26KT 10SM CLR 28/08 A2983 RMK AO2 PK WND 30026/2049
                 SLP109 T02830078 56006 =
2018-05-23 15:56 METAR KASH 231956Z COR 31014G22KT 10SM SCT095 28/08 A2983 RMK AO2 SLP110
                 T02830083 =
2018-05-23 14:56 METAR KASH 231856Z COR 35010G21KT 10SM SCT065 28/08 A2983 RMK AO2 SLP111
                 T02830083 =
2018-05-23 13:56 METAR KASH 231756Z COR 30009KT 10SM FEW065 27/10 A2985 RMK AO2 SLP116 T02720100
                 10278 20156 58013 =
2018-05-23 12:56 METAR KASH 231656Z 01005KT 10SM CLR 26/12 A2986 RMK AO2 SLP121 T02560122 =
2018-05-23 11:56 METAR KASH 231556Z 30008KT 10SM CLR 23/12 A2988 RMK AO2 SLP127 T02330122 =
2018-05-23 10:56 METAR KASH 231456Z 35009KT 320V020 10SM CLR 21/13 A2989 RMK AO2 SLP130 T02110128
                 51003 =
2018-05-23 09:56 METAR KASH 231356Z 32009KT 10SM SCT028 19/13 A2988 RMK AO2 SLP129 T01940133 =
2018-05-23 09:26 METAR KASH 231326Z 34012G15KT 10SM BKN028 19/13 A2988 RMK AO2 =
2018-05-23 08:56 METAR KASH 231256Z 32013KT 10SM BKN038 19/13 A2988 RMK AO2 SLP128 T01890133 =
2018-05-23 07:56 METAR KASH 231156Z COR 30004KT 10SM SCT023 16/13 A2988 RMK AO2 SLP127 70001
                 T01560133 10156 20117 50007 =
2018-05-23 06:56 METAR KASH 231056Z 00000KT 10SM SCT055 13/13 A2988 RMK AO2 SLP128 T01330128 =
2018-05-23 05:56 METAR KASH 230956Z AUTO 00000KT 10SM FEW023 BKN055 12/12 A2987 RMK AO2 SLP125
                 T01220122 =

Support USWX by starting your Amazon purchase here.